Time;durP1;ratioP1;P1;durP2;ratioP2;P2;SDS_P1;SDS_P2;PMS_P1;PMS_P2;Temp;Humidity;BMP_temperature;BMP_pressure;BME280_temperature;BME280_humidity;BME280_pressure;Samples;Min_cycle;Max_cycle;Signal;HPM_P1;HPM_P2
2021/12/09 00:00:09;;;;;;;28.50;15.20;;;;;;;-3.98;68.80;100142.52;85953;1328;22157;-68
2021/12/09 00:02:39;;;;;;;32.70;15.50;;;;;;;-3.94;68.92;100137.13;85226;1332;1003175;-75
2021/12/09 00:04:46;;;;;;;33.40;14.90;;;;;;;-3.91;69.22;100132.07;85954;1332;23056;-77
2021/12/09 00:06:54;;;;;;;28.50;14.90;;;;;;;-3.90;69.47;100132.42;85968;1332;22466;-77
2021/12/09 00:09:03;;;;;;;37.50;16.70;;;;;;;-3.89;69.68;100140.11;85953;1332;23146;-75
2021/12/09 00:11:11;;;;;;;32.50;15.40;;;;;;;-3.91;69.81;100138.89;85974;1333;23093;-68
2021/12/09 00:13:18;;;;;;;26.20;13.60;;;;;;;-3.92;69.93;100137.52;85227;1332;1003006;-69
2021/12/09 00:15:25;;;;;;;35.90;16.30;;;;;;;-3.93;69.96;100136.13;85171;1333;1002748;-68
2021/12/09 00:17:32;;;;;;;34.60;17.20;;;;;;;-3.93;69.99;100135.12;85894;1335;23185;-75
2021/12/09 00:19:40;;;;;;;32.50;15.20;;;;;;;-3.95;70.04;100139.84;85965;1335;23207;-78
2021/12/09 00:21:48;;;;;;;36.00;16.60;;;;;;;-3.95;70.13;100140.16;85163;1332;1002530;-75
2021/12/09 00:23:58;;;;;;;26.80;14.50;;;;;;;-3.96;70.24;100140.16;85953;1328;22392;-75
2021/12/09 00:26:04;;;;;;;;;;;;;;;-3.98;70.30;100144.22;85964;1335;22436;-75
2021/12/09 00:28:11;;;;;;;26.30;12.50;;;;;;;-4.02;70.52;100141.92;85947;1335;22891;-75
2021/12/09 00:30:21;;;;;;;29.80;14.30;;;;;;;-4.07;70.64;100142.36;85945;1332;22877;-75
2021/12/09 00:32:27;;;;;;;;;;;;;;;-4.07;70.71;100145.26;85957;1330;22480;-68
2021/12/09 00:34:36;;;;;;;37.90;17.90;;;;;;;-4.07;71.00;100148.33;85949;1334;22868;-69
2021/12/09 00:36:57;;;;;;;31.30;15.30;;;;;;;-4.03;71.08;100145.33;85947;1332;22813;-74
2021/12/09 00:39:08;;;;;;;47.30;20.60;;;;;;;-4.01;70.92;100149.61;85937;1329;22819;-75
2021/12/09 00:41:16;;;;;;;48.30;20.70;;;;;;;-4.00;71.24;100149.96;85964;1335;22463;-69
2021/12/09 00:43:27;;;;;;;37.70;17.30;;;;;;;-4.01;71.17;100150.81;85938;1332;23081;-68
2021/12/09 00:45:37;;;;;;;44.70;19.20;;;;;;;-4.02;71.42;100156.58;85791;1336;22213;-68
2021/12/09 00:47:44;;;;;;;27.70;13.20;;;;;;;-4.07;71.24;100158.02;85889;1329;22286;-68
2021/12/09 00:49:55;;;;;;;36.50;16.80;;;;;;;-4.13;71.31;100155.37;85936;1332;23081;-68
2021/12/09 00:52:06;;;;;;;43.70;18.20;;;;;;;-4.18;71.48;100154.60;85946;1332;22202;-68
2021/12/09 00:54:13;;;;;;;38.00;17.50;;;;;;;-4.20;71.54;100152.53;85217;1333;1002776;-68
2021/12/09 00:56:20;;;;;;;26.70;14.50;;;;;;;-4.20;71.61;100154.39;85949;1333;22909;-75
2021/12/09 00:58:27;;;;;;;23.20;12.30;;;;;;;-4.19;71.64;100151.02;85942;1332;22608;-75
2021/12/09 01:00:37;;;;;;;19.50;12.00;;;;;;;-4.17;71.75;100153.77;85212;1335;1002650;-68
2021/12/09 01:02:45;;;;;;;20.20;12.40;;;;;;;-4.17;71.87;100154.29;85923;1332;22417;-68
2021/12/09 01:04:55;;;;;;;28.80;13.70;;;;;;;-4.17;71.93;100156.66;85935;1333;22351;-68
2021/12/09 01:07:02;;;;;;;23.50;13.40;;;;;;;-4.18;72.03;100158.52;85945;1333;22817;-68
2021/12/09 01:09:09;;;;;;;21.50;11.90;;;;;;;-4.24;71.99;100159.44;85940;1332;22823;-68
2021/12/09 01:11:19;;;;;;;28.50;14.00;;;;;;;-4.27;71.98;100160.75;85875;1333;22353;-69
2021/12/09 01:13:30;;;;;;;27.60;14.20;;;;;;;-4.27;72.07;100161.26;85932;1332;22198;-68
2021/12/09 01:15:37;;;;;;;40.50;17.20;;;;;;;-4.29;72.10;100156.96;85947;1332;22318;-68
2021/12/09 01:17:44;;;;;;;38.20;17.70;;;;;;;-4.31;72.17;100158.96;85932;1334;22458;-70
2021/12/09 01:19:52;;;;;;;27.70;14.90;;;;;;;-4.32;72.22;100155.20;85881;1336;22274;-68
2021/12/09 01:22:00;;;;;;;48.90;19.00;;;;;;;-4.34;72.18;100158.73;85145;1333;1002454;-68
2021/12/09 01:24:07;;;;;;;26.40;13.80;;;;;;;-4.32;72.12;100160.66;85926;1333;22870;-68
2021/12/09 01:26:13;;;;;;;26.20;12.90;;;;;;;-4.29;72.17;100162.56;85929;1335;22385;-75
2021/12/09 01:28:26;;;;;;;43.90;18.50;;;;;;;-4.25;72.25;100159.05;85947;1328;22428;-75
2021/12/09 01:30:33;;;;;;;48.40;22.40;;;;;;;-4.20;72.34;100152.01;85221;1332;1002180;-75
2021/12/09 01:32:48;;;;;;;39.00;18.90;;;;;;;-4.13;72.35;100150.09;85944;1333;23154;-75
2021/12/09 01:34:55;;;;;;;43.70;19.70;;;;;;;-4.09;72.13;100152.88;85934;1332;22238;-75
2021/12/09 01:37:03;;;;;;;34.60;16.30;;;;;;;-4.11;72.10;100147.55;85938;1333;22793;-75
2021/12/09 01:39:13;;;;;;;33.10;16.70;;;;;;;-4.17;72.07;100142.87;85929;1333;22179;-75
2021/12/09 01:41:23;;;;;;;30.40;14.80;;;;;;;-4.17;72.36;100144.06;85227;1332;1002711;-69
2021/12/09 01:43:30;;;;;;;30.60;14.60;;;;;;;-4.19;72.33;100140.29;85924;1335;22504;-68
2021/12/09 01:45:40;;;;;;;40.80;18.60;;;;;;;-4.20;72.26;100140.27;85939;1335;23003;-68
2021/12/09 01:47:51;;;;;;;23.80;14.00;;;;;;;-4.23;72.19;100137.99;85929;1332;22290;-69
2021/12/09 01:50:01;;;;;;;24.50;12.40;;;;;;;-4.27;72.12;100137.58;85912;1333;22202;-68
2021/12/09 01:52:08;;;;;;;25.40;13.70;;;;;;;-4.31;72.09;100131.71;85167;1333;1002988;-68
2021/12/09 01:54:18;;;;;;;22.10;12.70;;;;;;;-4.30;71.97;100133.08;85879;1336;22385;-68
2021/12/09 01:56:29;;;;;;;26.20;15.10;;;;;;;-4.29;71.75;100129.88;85874;1332;22381;-68
2021/12/09 01:58:36;;;;;;;29.00;14.70;;;;;;;-4.27;71.76;100134.52;85924;1332;22176;-68
2021/12/09 02:00:44;;;;;;;19.80;11.50;;;;;;;-4.25;71.67;100128.23;85922;1335;22943;-69
2021/12/09 02:02:54;;;;;;;25.00;12.80;;;;;;;-4.23;71.76;100125.40;85869;1334;22195;-76
2021/12/09 02:05:04;;;;;;;27.20;14.60;;;;;;;-4.21;71.69;100126.27;85950;1332;22318;-75
2021/12/09 02:07:15;;;;;;;24.70;12.60;;;;;;;-4.21;71.58;100127.64;85927;1333;22370;-75
2021/12/09 02:09:22;;;;;;;29.20;15.80;;;;;;;-4.22;71.48;100125.56;85062;1335;1003367;-75
2021/12/09 02:11:29;;;;;;;28.40;14.90;;;;;;;-4.23;71.41;100121.98;85846;1335;22379;-68
2021/12/09 02:13:36;;;;;;;24.90;15.20;;;;;;;-4.24;71.46;100117.88;85929;1335;22954;-68
2021/12/09 02:15:45;;;;;;;23.40;13.10;;;;;;;-4.25;71.23;100119.21;85939;1333;22981;-70
2021/12/09 02:17:53;;;;;;;25.90;14.70;;;;;;;-4.31;71.13;100119.80;85936;1332;22293;-68
2021/12/09 02:20:02;;;;;;;23.50;13.10;;;;;;;-4.36;71.19;100124.64;85938;1335;23055;-68
2021/12/09 02:22:14;;;;;;;26.50;13.10;;;;;;;-4.37;71.07;100126.15;85928;1332;23049;-76
2021/12/09 02:24:22;;;;;;;19.70;10.80;;;;;;;-4.38;71.15;100129.20;85208;1332;1002825;-75
2021/12/09 02:26:34;;;;;;;21.70;12.40;;;;;;;-4.38;71.20;100132.95;85935;1335;22350;-68
2021/12/09 02:28:42;;;;;;;26.30;13.40;;;;;;;-4.37;71.22;100129.38;85929;1334;23074;-69
2021/12/09 02:30:52;;;;;;;22.30;12.80;;;;;;;-4.36;71.30;100125.49;85951;1335;22357;-68
2021/12/09 02:32:57;;;;;;;;;;;;;;;-4.35;71.46;100126.19;85804;1335;22432;-68
2021/12/09 02:35:08;;;;;;;28.00;14.70;;;;;;;-4.34;71.63;100126.22;85923;1332;22444;-68
2021/12/09 02:37:15;;;;;;;27.30;14.60;;;;;;;-4.32;71.56;100119.62;85941;1335;22781;-75
2021/12/09 02:39:22;;;;;;;27.20;14.40;;;;;;;-4.31;71.50;100116.38;85929;1332;22934;-75
2021/12/09 02:41:29;;;;;;;26.70;14.80;;;;;;;-4.33;71.51;100110.73;85888;1335;22975;-68
2021/12/09 02:43:39;;;;;;;26.10;13.60;;;;;;;-4.36;71.44;100106.08;85930;1332;23175;-68
2021/12/09 02:45:52;;;;;;;30.30;17.30;;;;;;;-4.41;71.48;100095.95;85938;1324;22361;-74
2021/12/09 02:47:59;;;;;;;27.20;15.00;;;;;;;-4.42;71.67;100091.69;85932;1332;22429;-75
2021/12/09 02:50:08;;;;;;;28.60;15.70;;;;;;;-4.40;71.73;100090.17;85858;1332;22984;-68
2021/12/09 02:52:19;;;;;;;24.50;13.40;;;;;;;-4.37;71.70;100091.59;85934;1332;22853;-68
2021/12/09 02:54:26;;;;;;;25.50;14.80;;;;;;;-4.37;71.86;100083.93;85926;1333;23064;-68
2021/12/09 02:56:33;;;;;;;23.80;12.70;;;;;;;-4.38;71.79;100081.70;85951;1332;22320;-68
2021/12/09 02:58:43;;;;;;;28.10;14.90;;;;;;;-4.39;71.85;100082.36;85916;1335;22811;-68
2021/12/09 03:00:59;;;;;;;28.80;15.60;;;;;;;-4.39;71.86;100080.99;85879;1333;22862;-76
2021/12/09 03:03:09;;;;;;;25.40;14.50;;;;;;;-4.40;72.04;100079.80;85916;1332;22251;-75
2021/12/09 03:05:19;;;;;;;32.20;16.90;;;;;;;-4.43;72.23;100076.67;85227;1332;1002481;-75
2021/12/09 03:07:27;;;;;;;;;;;;;;;-4.48;72.19;100086.12;85942;1332;22974;-75
2021/12/09 03:09:34;;;;;;;23.70;13.10;;;;;;;-4.55;72.55;100083.95;85943;1332;22273;-75
2021/12/09 03:11:41;;;;;;;25.50;14.70;;;;;;;-4.59;72.67;100085.58;85221;1333;1002493;-75
2021/12/09 03:13:51;;;;;;;27.20;14.70;;;;;;;-4.62;72.83;100081.61;85928;1332;23020;-77
2021/12/09 03:15:58;;;;;;;27.20;15.20;;;;;;;-4.62;72.91;100082.11;85918;1333;22754;-69
2021/12/09 03:18:08;;;;;;;23.70;14.40;;;;;;;-4.61;72.86;100079.25;85919;1332;22513;-68
2021/12/09 03:20:19;;;;;;;25.00;13.90;;;;;;;-4.57;73.04;100076.43;85880;1336;22191;-68
2021/12/09 03:22:26;;;;;;;22.80;13.50;;;;;;;-4.53;73.00;100079.88;85939;1332;22867;-74
2021/12/09 03:24:33;;;;;;;23.80;13.90;;;;;;;-4.53;72.98;100077.67;85928;1333;22957;-75
2021/12/09 03:26:42;;;;;;;24.50;14.50;;;;;;;-4.54;72.95;100083.62;85818;1335;22958;-68
2021/12/09 03:28:49;;;;;;;31.40;16.50;;;;;;;-4.55;73.06;100081.55;85941;1335;22998;-69
2021/12/09 03:30:56;;;;;;;24.90;14.00;;;;;;;-4.57;73.05;100085.45;85216;1332;1002942;-74
2021/12/09 03:33:03;;;;;;;28.10;15.70;;;;;;;-4.59;73.27;100085.92;85941;1332;22870;-75
2021/12/09 03:35:11;;;;;;;29.30;14.30;;;;;;;-4.62;73.21;100094.21;85934;1332;22341;-75
2021/12/09 03:37:19;;;;;;;23.80;12.90;;;;;;;-4.63;73.26;100085.83;85891;1336;22213;-75
2021/12/09 03:39:33;;;;;;;22.90;13.40;;;;;;;-4.61;73.33;100083.66;85870;1332;22384;-75
2021/12/09 03:41:44;;;;;;;28.20;14.20;;;;;;;-4.60;73.34;100084.02;85946;1332;23020;-68
2021/12/09 03:43:54;;;;;;;22.00;12.10;;;;;;;-4.58;73.62;100077.77;85214;1330;1002431;-68
2021/12/09 03:46:04;;;;;;;21.10;12.70;;;;;;;-4.53;73.42;100078.35;85934;1333;22378;-74
2021/12/09 03:48:12;;;;;;;;;;;;;;;-4.48;73.47;100077.28;85151;1333;1002550;-75
2021/12/09 03:50:19;;;;;;;22.40;12.90;;;;;;;-4.46;73.55;100084.11;85947;1332;22754;-75
2021/12/09 03:52:29;;;;;;;25.20;12.90;;;;;;;-4.45;73.25;100081.39;85946;1335;22223;-75
2021/12/09 03:54:37;;;;;;;25.30;15.40;;;;;;;-4.48;73.19;100088.01;85945;1332;22846;-75
2021/12/09 03:56:44;;;;;;;23.00;12.80;;;;;;;-4.49;73.30;100090.88;85960;1331;22310;-74
2021/12/09 03:58:54;;;;;;;27.90;14.20;;;;;;;-4.53;73.21;100088.23;85924;1335;22304;-75
2021/12/09 04:01:01;;;;;;;26.80;14.60;;;;;;;-4.56;73.38;100088.86;85928;1334;22508;-74
2021/12/09 04:03:11;;;;;;;25.70;14.50;;;;;;;-4.58;73.25;100084.39;85366;1333;799388;-75
2021/12/09 04:05:19;;;;;;;26.00;14.20;;;;;;;-4.61;73.35;100082.48;85829;1333;23009;-75
2021/12/09 04:07:26;;;;;;;20.00;11.10;;;;;;;-4.61;73.36;100081.29;85779;1336;23005;-68
2021/12/09 04:09:33;;;;;;;21.00;13.00;;;;;;;-4.60;73.37;100080.11;85944;1332;23141;-68
2021/12/09 04:11:40;;;;;;;23.40;13.60;;;;;;;-4.58;73.39;100077.06;85957;1335;23113;-67
2021/12/09 04:13:47;;;;;;;22.90;13.60;;;;;;;-4.56;73.46;100080.70;85931;1331;22873;-68
2021/12/09 04:15:58;;;;;;;24.50;13.70;;;;;;;-4.52;73.34;100083.84;85236;1332;1006647;-76
2021/12/09 04:18:05;;;;;;;23.50;12.30;;;;;;;-4.51;73.25;100077.55;85936;1332;22205;-75
2021/12/09 04:20:14;;;;;;;22.70;12.90;;;;;;;-4.52;73.21;100074.47;85940;1332;22845;-75
2021/12/09 04:22:21;;;;;;;23.00;14.70;;;;;;;-4.52;73.18;100085.04;85935;1335;22333;-68
2021/12/09 04:24:28;;;;;;;25.70;14.30;;;;;;;-4.50;73.22;100092.38;85942;1332;23034;-68
2021/12/09 04:26:35;;;;;;;25.30;13.70;;;;;;;-4.52;73.11;100096.09;85072;1335;1002353;-76
2021/12/09 04:28:43;;;;;;;22.40;12.70;;;;;;;-4.54;73.19;100101.15;85944;1335;22285;-77
2021/12/09 04:30:50;;;;;;;22.90;13.10;;;;;;;-4.56;73.08;100100.10;85940;1333;22928;-68
2021/12/09 04:33:00;;;;;;;23.40;12.40;;;;;;;-4.56;73.18;100105.21;85078;1333;1002924;-68
2021/12/09 04:35:09;;;;;;;;;;;;;;;-4.56;72.98;100101.64;85961;1335;23308;-70
2021/12/09 04:37:16;;;;;;;18.90;11.10;;;;;;;-4.57;73.07;100103.48;85955;1335;22726;-69
2021/12/09 04:39:27;;;;;;;16.20;10.40;;;;;;;-4.53;73.10;100108.33;85787;1334;22160;-69
2021/12/09 04:41:37;;;;;;;20.70;12.10;;;;;;;-4.49;73.08;100110.94;85952;1335;22261;-68
2021/12/09 04:43:45;;;;;;;;;;;;;;;-4.47;73.04;100116.63;85855;1334;22429;-69
2021/12/09 04:45:59;;;;;;;23.30;12.80;;;;;;;-4.49;72.87;100111.80;85936;1332;22291;-69
2021/12/09 04:48:07;;;;;;;20.60;11.60;;;;;;;-4.46;73.01;100115.95;85220;1332;1002104;-68
2021/12/09 04:50:14;;;;;;;19.40;12.30;;;;;;;-4.44;73.01;100116.48;85790;1329;22195;-68
2021/12/09 04:52:24;;;;;;;18.20;11.10;;;;;;;-4.43;72.88;100119.05;85936;1331;22847;-75
2021/12/09 04:54:36;;;;;;;19.80;11.50;;;;;;;-4.46;72.55;100121.40;85214;1333;1002425;-76
2021/12/09 04:56:46;;;;;;;17.70;11.80;;;;;;;-4.48;72.78;100110.98;85944;1335;22981;-76
2021/12/09 04:58:53;;;;;;;17.70;11.60;;;;;;;-4.47;72.79;100106.23;85799;1336;22397;-77
2021/12/09 05:01:01;;;;;;;21.10;10.70;;;;;;;-4.49;72.79;100106.04;85926;1333;22488;-77
2021/12/09 05:03:11;;;;;;;17.70;10.70;;;;;;;-4.46;72.78;100103.68;85131;1330;1002921;-76
2021/12/09 05:05:18;;;;;;;20.10;11.30;;;;;;;-4.43;72.72;100113.80;85935;1334;22203;-75
2021/12/09 05:07:26;;;;;;;19.50;11.30;;;;;;;-4.43;72.49;100115.84;85930;1335;22412;-68
2021/12/09 05:09:38;;;;;;;19.50;11.20;;;;;;;-4.41;72.59;100118.60;85922;1335;23046;-69
2021/12/09 05:11:49;;;;;;;15.90;9.30;;;;;;;-4.41;72.54;100120.30;85916;1335;22187;-74
2021/12/09 05:13:58;;;;;;;15.80;10.50;;;;;;;-4.43;72.54;100120.61;85195;1332;1002726;-75
2021/12/09 05:16:11;;;;;;;16.30;10.90;;;;;;;-4.43;72.46;100123.01;85211;1335;1006564;-69
2021/12/09 05:18:22;;;;;;;20.70;11.00;;;;;;;-4.43;72.63;100120.95;85859;1336;23113;-69
2021/12/09 05:20:32;;;;;;;17.70;10.30;;;;;;;-4.44;72.48;100114.96;85914;1332;22996;-68
2021/12/09 05:22:39;;;;;;;18.30;10.80;;;;;;;-4.45;72.67;100103.53;85935;1335;23083;-69
2021/12/09 05:24:49;;;;;;;18.20;11.00;;;;;;;-4.46;72.72;100108.29;85917;1332;22997;-68
2021/12/09 05:26:56;;;;;;;19.30;10.70;;;;;;;-4.46;72.70;100111.35;85870;1332;23155;-77
2021/12/09 05:29:06;;;;;;;17.30;10.80;;;;;;;-4.48;72.61;100119.83;85940;1335;22842;-76
2021/12/09 05:33:41;;;;;;;18.50;12.30;;;;;;;-4.50;72.69;100111.12;85918;1329;22208;-76
2021/12/09 05:35:52;;;;;;;18.30;11.90;;;;;;;-4.47;72.80;100114.06;85778;1337;23163;-74
2021/12/09 05:37:57;;;;;;;;;;;;;;;-4.44;72.82;100117.34;85929;1332;23038;-75
2021/12/09 05:40:09;;;;;;;15.50;9.90;;;;;;;-4.46;72.86;100112.38;85916;1335;22339;-75
2021/12/09 05:42:17;;;;;;;20.10;11.50;;;;;;;-4.44;72.84;100108.83;85928;1335;22921;-68
2021/12/09 05:44:24;;;;;;;16.40;11.20;;;;;;;-4.44;72.89;100111.20;85932;1335;22311;-69
2021/12/09 05:46:34;;;;;;;17.90;11.40;;;;;;;-4.44;72.90;100108.14;85209;1332;1002672;-75
2021/12/09 05:48:43;;;;;;;;;;;;;;;-4.43;72.95;100105.80;85216;1335;1002372;-75
2021/12/09 05:50:53;;;;;;;17.90;10.50;;;;;;;-4.44;73.01;100105.59;85212;1335;1002385;-69
2021/12/09 05:53:03;;;;;;;19.90;13.00;;;;;;;-4.44;73.01;100115.14;85793;1334;22187;-68
2021/12/09 05:55:11;;;;;;;16.60;10.40;;;;;;;-4.44;73.13;100123.48;85929;1335;22890;-68
2021/12/09 05:57:17;;;;;;;20.60;11.70;;;;;;;-4.43;72.98;100128.27;85946;1335;22916;-68
2021/12/09 05:59:28;;;;;;;18.00;10.50;;;;;;;-4.42;72.99;100130.16;85201;1335;1006634;-69
2021/12/09 06:01:33;;;;;;;;;;;;;;;-4.37;73.08;100133.31;85939;1335;22533;-68
2021/12/09 06:03:40;;;;;;;19.60;11.90;;;;;;;-4.37;73.11;100131.44;85937;1335;22175;-68
2021/12/09 06:05:50;;;;;;;19.90;11.80;;;;;;;-4.34;73.08;100126.55;85920;1335;23044;-68
2021/12/09 06:08:01;;;;;;;20.20;11.80;;;;;;;-4.32;73.10;100116.20;85923;1335;22386;-68
2021/12/09 06:10:11;;;;;;;19.30;12.00;;;;;;;-4.29;73.18;100111.48;85767;1333;22305;-68
2021/12/09 06:12:20;;;;;;;15.80;11.10;;;;;;;-4.28;73.16;100109.46;85875;1336;22419;-68
2021/12/09 06:14:28;;;;;;;24.80;13.80;;;;;;;-4.31;73.08;100111.27;85221;1335;1002416;-68
2021/12/09 06:16:38;;;;;;;20.60;12.40;;;;;;;-4.35;73.16;100111.21;85792;1337;22406;-77
2021/12/09 06:18:45;;;;;;;19.10;12.10;;;;;;;-4.36;73.19;100114.42;85902;1335;22889;-77
2021/12/09 06:20:55;;;;;;;22.50;12.90;;;;;;;-4.37;73.15;100109.11;85926;1335;22208;-80
2021/12/09 06:23:05;;;;;;;16.30;11.30;;;;;;;-4.36;73.19;100109.48;85923;1335;23091;-81
2021/12/09 06:25:18;;;;;;;19.90;11.80;;;;;;;-4.35;73.31;100108.48;85934;1331;22218;-81
2021/12/09 06:27:28;;;;;;;15.30;9.80;;;;;;;-4.31;73.30;100109.75;85912;1331;22575;-66
2021/12/09 06:29:38;;;;;;;23.90;13.40;;;;;;;-4.28;73.38;100105.39;85923;1335;22440;-67
2021/12/09 06:31:46;;;;;;;21.10;11.90;;;;;;;-4.24;73.30;100108.50;85875;1336;23138;-81
2021/12/09 06:33:52;;;;;;;19.10;11.80;;;;;;;-4.21;73.40;100100.55;85929;1335;23275;-79
2021/12/09 06:36:00;;;;;;;23.60;13.60;;;;;;;-4.20;73.30;100095.12;85927;1330;22217;-68
2021/12/09 06:38:12;;;;;;;20.10;12.00;;;;;;;-4.20;73.31;100105.50;85924;1333;22216;-67
2021/12/09 06:40:20;;;;;;;17.90;11.40;;;;;;;-4.22;73.33;100108.71;85913;1335;22961;-68
2021/12/09 06:42:28;;;;;;;27.30;13.50;;;;;;;-4.24;73.39;100107.98;85936;1331;22355;-67
2021/12/09 06:44:35;;;;;;;25.80;14.70;;;;;;;-4.25;73.51;100109.86;85214;1335;1002859;-67
2021/12/09 06:46:45;;;;;;;20.80;12.40;;;;;;;-4.27;73.65;100113.22;85926;1335;22370;-67
2021/12/09 06:48:52;;;;;;;20.60;11.60;;;;;;;-4.29;73.70;100117.44;85901;1335;22391;-68
2021/12/09 06:51:01;;;;;;;22.10;12.50;;;;;;;-4.28;73.64;100119.34;85922;1335;22359;-69
2021/12/09 06:53:14;;;;;;;84.10;44.10;;;;;;;-4.26;73.81;100119.21;85873;1333;22201;-68
2021/12/09 06:55:24;;;;;;;22.60;14.00;;;;;;;-4.23;73.98;100126.43;85930;1335;22936;-68
2021/12/09 06:57:30;;;;;;;;;;;;;;;-4.21;73.90;100127.46;85934;1335;22409;-78
2021/12/09 06:59:37;;;;;;;22.10;11.70;;;;;;;-4.21;73.81;100134.95;85914;1330;22214;-77
2021/12/09 07:01:44;;;;;;;28.40;13.80;;;;;;;-4.20;73.93;100137.70;85195;1334;1002353;-68
2021/12/09 07:03:53;;;;;;;23.10;13.40;;;;;;;-4.19;74.00;100133.65;85917;1335;22971;-68
2021/12/09 07:06:06;;;;;;;26.30;15.50;;;;;;;-4.17;74.00;100131.63;85784;1337;22980;-68
2021/12/09 07:08:13;;;;;;;23.50;14.70;;;;;;;-4.17;73.97;100126.68;85935;1335;23114;-68
2021/12/09 07:10:24;;;;;;;18.00;10.30;;;;;;;-4.16;74.00;100133.86;85931;1335;22183;-69
2021/12/09 07:12:34;;;;;;;19.20;11.20;;;;;;;-4.16;73.89;100137.27;85919;1335;22920;-76
2021/12/09 07:14:40;;;;;;;;;;;;;;;-4.13;73.79;100138.69;85948;1335;22997;-76
2021/12/09 07:16:51;;;;;;;20.30;12.40;;;;;;;-4.12;74.07;100135.29;85932;1335;23227;-77
2021/12/09 07:19:02;;;;;;;21.10;12.40;;;;;;;-4.09;74.01;100139.24;85803;1331;22384;-78
2021/12/09 07:21:09;;;;;;;23.00;14.80;;;;;;;-4.07;73.88;100138.27;85796;1337;22735;-68
2021/12/09 07:23:20;;;;;;;19.90;12.70;;;;;;;-4.04;74.05;100138.64;85925;1335;22861;-68
2021/12/09 07:25:30;;;;;;;21.40;12.70;;;;;;;-4.03;73.83;100135.45;85943;1335;22335;-68
2021/12/09 07:27:37;;;;;;;24.50;14.50;;;;;;;-4.01;73.88;100127.63;85217;1333;1002338;-77
2021/12/09 07:29:47;;;;;;;30.40;16.10;;;;;;;-4.01;73.84;100126.28;85850;1336;22900;-77
2021/12/09 07:31:58;;;;;;;25.10;13.30;;;;;;;-4.01;73.77;100123.88;85214;1334;1003070;-77
2021/12/09 07:34:04;;;;;;;21.90;13.80;;;;;;;-4.02;73.72;100131.04;85859;1336;22359;-77
2021/12/09 07:36:15;;;;;;;19.30;11.70;;;;;;;-4.01;73.83;100131.39;85780;1327;22792;-70
2021/12/09 07:38:25;;;;;;;22.60;13.60;;;;;;;-3.96;73.78;100133.70;85864;1334;22292;-68
2021/12/09 07:40:36;;;;;;;20.80;11.80;;;;;;;-3.90;73.71;100137.36;85210;1335;1002476;-69
2021/12/09 07:42:46;;;;;;;19.40;13.80;;;;;;;-3.88;73.75;100135.69;85933;1335;22951;-68
2021/12/09 07:44:54;;;;;;;22.90;14.30;;;;;;;-3.84;73.74;100142.23;85928;1335;23163;-68
2021/12/09 07:47:01;;;;;;;20.90;13.60;;;;;;;-3.79;73.69;100143.50;85856;1336;22467;-77
2021/12/09 07:49:11;;;;;;;23.80;12.50;;;;;;;-3.80;73.59;100144.17;85934;1335;22462;-76
2021/12/09 07:51:18;;;;;;;24.60;14.50;;;;;;;-3.81;73.61;100141.94;85225;1335;1002817;-76
2021/12/09 07:53:28;;;;;;;23.60;13.50;;;;;;;-3.83;73.69;100144.29;85925;1332;23081;-76
2021/12/09 07:55:35;;;;;;;22.10;13.70;;;;;;;-3.83;73.86;100144.30;85935;1335;22236;-76
2021/12/09 07:57:45;;;;;;;21.70;13.60;;;;;;;-3.81;73.71;100149.78;85920;1335;22223;-76
2021/12/09 07:59:52;;;;;;;22.80;13.20;;;;;;;-3.77;73.70;100145.25;85923;1335;22510;-76
2021/12/09 08:02:03;;;;;;;18.10;11.90;;;;;;;-3.74;73.74;100141.73;85931;1335;22355;-70
2021/12/09 08:04:13;;;;;;;21.90;13.70;;;;;;;-3.70;73.61;100142.98;85926;1335;22205;-69
2021/12/09 08:06:29;;;;;;;21.50;12.40;;;;;;;-3.71;73.75;100137.50;85089;1333;1002985;-76
2021/12/09 08:08:41;;;;;;;23.10;13.20;;;;;;;-3.73;73.70;100136.79;85951;1335;22190;-77
2021/12/09 08:10:52;;;;;;;21.40;13.30;;;;;;;-3.73;73.81;100130.14;85244;1335;1003058;-69
2021/12/09 08:13:07;;;;;;;;;;;;;;;-3.72;73.90;100121.30;85967;1332;23148;-69
2021/12/09 08:15:17;;;;;;;21.00;13.40;;;;;;;-3.74;74.05;100119.57;85228;1335;1002369;-69
2021/12/09 08:17:44;;;;;;;;;;;;;;;-3.74;74.05;100121.44;85967;1335;22479;-76
2021/12/09 08:19:56;;;;;;;22.00;13.40;;;;;;;-3.75;74.14;100119.20;85218;1335;1002239;-78
2021/12/09 08:22:11;;;;;;;21.40;14.10;;;;;;;-3.68;74.17;100117.45;85957;1335;22942;-69
2021/12/09 08:24:18;;;;;;;20.90;13.10;;;;;;;-3.59;74.13;100116.03;85935;1331;22782;-68
2021/12/09 08:26:26;;;;;;;21.80;13.30;;;;;;;-3.54;74.10;100122.09;85963;1335;22985;-76
2021/12/09 08:28:36;;;;;;;22.10;13.20;;;;;;;-3.50;74.06;100119.74;85222;1330;1003058;-77
2021/12/09 08:30:44;;;;;;;18.50;13.50;;;;;;;-3.49;73.97;100115.33;85937;1332;22481;-75
2021/12/09 08:32:51;;;;;;;22.70;14.60;;;;;;;-3.46;74.01;100110.09;85925;1332;22800;-69
2021/12/09 08:34:59;;;;;;;23.30;13.90;;;;;;;-3.41;74.07;100113.23;85949;1335;22465;-67
2021/12/09 08:37:10;;;;;;;25.60;15.20;;;;;;;-3.39;73.99;100117.38;85063;1337;1002476;-66
2021/12/09 08:39:18;;;;;;;22.80;15.30;;;;;;;-3.35;74.00;100123.70;85229;1335;1002381;-67
2021/12/09 08:41:29;;;;;;;21.90;13.40;;;;;;;-3.33;73.94;100127.66;85665;1337;22431;-69
2021/12/09 08:43:41;;;;;;;19.20;12.70;;;;;;;-3.31;73.92;100137.07;85953;1321;22945;-69
2021/12/09 08:45:49;;;;;;;21.60;13.30;;;;;;;-3.29;73.86;100147.52;85952;1335;22988;-75
2021/12/09 08:47:56;;;;;;;19.90;12.50;;;;;;;-3.24;73.92;100141.79;85869;1333;22382;-77
2021/12/09 08:50:04;;;;;;;20.30;13.30;;;;;;;-3.18;73.89;100145.96;85871;1336;22829;-76
2021/12/09 08:52:14;;;;;;;19.50;12.70;;;;;;;-3.20;73.64;100147.13;85965;1335;22215;-77
2021/12/09 08:54:21;;;;;;;20.70;13.30;;;;;;;-3.21;73.78;100155.81;85946;1335;22967;-77
2021/12/09 08:56:32;;;;;;;22.20;13.40;;;;;;;-3.20;73.77;100158.90;85211;1335;1002413;-68
2021/12/09 08:58:40;;;;;;;;;;;;;;;-3.20;73.92;100159.92;85953;1332;23065;-68
2021/12/09 09:00:47;;;;;;;24.50;15.50;;;;;;;-3.20;74.00;100157.88;85942;1335;22200;-69
2021/12/09 09:02:57;;;;;;;24.20;14.20;;;;;;;-3.14;74.14;100158.99;85095;1333;1002340;-77
2021/12/09 09:05:11;;;;;;;21.90;12.70;;;;;;;-3.10;74.02;100154.09;85955;1334;22981;-77
2021/12/09 09:07:21;;;;;;;23.80;14.00;;;;;;;-3.06;73.87;100149.52;85941;1335;22347;-77
2021/12/09 09:09:34;;;;;;;22.20;14.40;;;;;;;-3.01;73.95;100143.98;85220;1335;1002356;-77
2021/12/09 09:11:41;;;;;;;23.40;14.10;;;;;;;-2.93;73.77;100136.05;85937;1335;22320;-77
2021/12/09 09:13:51;;;;;;;25.20;12.60;;;;;;;-2.86;73.72;100130.17;85947;1335;22179;-76
2021/12/09 09:15:58;;;;;;;21.80;13.40;;;;;;;-2.80;73.68;100132.46;85941;1335;22451;-77
2021/12/09 09:18:05;;;;;;;17.90;12.50;;;;;;;-2.75;73.59;100139.70;85926;1334;22525;-77
2021/12/09 09:20:14;;;;;;;21.40;13.60;;;;;;;-2.71;73.58;100139.76;85921;1332;23019;-77
2021/12/09 09:22:21;;;;;;;22.10;13.90;;;;;;;-2.67;73.51;100143.38;85939;1334;22741;-77
2021/12/09 09:24:34;;;;;;;21.90;13.80;;;;;;;-2.65;73.24;100142.55;85864;1333;22355;-77
2021/12/09 09:26:41;;;;;;;24.50;14.10;;;;;;;-2.63;73.44;100144.79;85942;1332;22254;-77
2021/12/09 09:28:48;;;;;;;23.40;14.80;;;;;;;-2.58;73.43;100144.84;85926;1332;22945;-77
2021/12/09 09:31:03;;;;;;;22.00;13.40;;;;;;;-2.59;73.14;100149.61;85787;1337;22959;-68
2021/12/09 09:33:15;;;;;;;23.70;14.20;;;;;;;-2.64;73.15;100158.26;85940;1332;22300;-68
2021/12/09 09:35:25;;;;;;;22.60;13.20;;;;;;;-2.64;73.08;100164.08;85913;1335;23132;-68
2021/12/09 09:37:35;;;;;;;23.60;15.00;;;;;;;-2.61;73.26;100154.55;85937;1332;22454;-76
2021/12/09 09:39:44;;;;;;;20.20;14.20;;;;;;;-2.60;73.31;100150.46;85054;1337;1002145;-77
2021/12/09 09:41:59;;;;;;;22.80;14.20;;;;;;;-2.66;73.14;100144.23;85928;1332;22565;-69
2021/12/09 09:44:15;;;;;;;24.30;14.60;;;;;;;-2.70;73.45;100142.83;85920;1335;22209;-68
2021/12/09 09:46:24;;;;;;;26.70;15.70;;;;;;;-2.75;73.48;100135.77;85920;1335;22463;-76
2021/12/09 09:48:31;;;;;;;26.10;16.00;;;;;;;-2.76;73.60;100136.42;85925;1335;22910;-78
2021/12/09 09:50:41;;;;;;;26.90;15.70;;;;;;;-2.75;73.65;100139.70;85926;1328;22927;-76